Time;durP1;ratioP1;P1;durP2;ratioP2;P2;SDS_P1;SDS_P2;PMS_P1;PMS_P2;Temp;Humidity;BMP_temperature;BMP_pressure;BME280_temperature;BME280_humidity;BME280_pressure;Samples;Min_cycle;Max_cycle;Signal;HPM_P1;HPM_P2
2024/03/18 00:02:22;;;;;;;3.10;1.20;;;;;;;;;;5008047;28;20213;-80
2024/03/18 00:04:48;;;;;;;3.40;1.57;;;;;;;;;;4995550;28;20288;-79
2024/03/18 00:07:14;;;;;;;2.93;1.40;;;;;;;;;;4991462;28;20226;-80
2024/03/18 00:09:44;;;;;;;5.47;1.40;;;;;;;;;;4977260;28;20251;-80
2024/03/18 00:12:09;;;;;;;5.80;1.70;;;;;;;;;;4979297;28;20287;-80
2024/03/18 00:14:38;;;;;;;3.57;1.40;;;;;;;;;;4991215;28;20229;-80
2024/03/18 00:17:05;;;;;;;3.27;1.30;;;;;;;;;;5001524;28;20629;-80
2024/03/18 00:19:31;;;;;;;5.10;1.70;;;;;;;;;;4978738;28;20237;-80
2024/03/18 00:21:57;;;;;;;5.73;1.67;;;;;;;;;;4945035;28;20248;-79
2024/03/18 00:24:22;;;;;;;4.00;1.37;;;;;;;;;;4975098;28;20321;-79
2024/03/18 00:26:48;;;;;;;3.77;1.40;;;;;;;;;;4962502;28;20249;-78
2024/03/18 00:29:15;;;;;;;5.43;1.50;;;;;;;;;;4991633;28;20932;-79
2024/03/18 00:31:41;;;;;;;3.77;1.30;;;;;;;;;;4987358;28;20257;-79
2024/03/18 00:34:11;;;;;;;4.60;1.30;;;;;;;;;;4990060;28;20217;-79
2024/03/18 00:36:36;;;;;;;4.73;1.30;;;;;;;;;;5003604;28;20305;-78
2024/03/18 00:39:02;;;;;;;2.90;1.20;;;;;;;;;;5003434;28;20915;-79
2024/03/18 00:41:49;;;;;;;3.57;1.40;;;;;;;;;;5001014;28;20226;-78
2024/03/18 00:44:16;;;;;;;5.17;1.57;;;;;;;;;;4988687;28;20233;-80
2024/03/18 00:46:44;;;;;;;2.10;1.17;;;;;;;;;;4977620;28;20221;-79
2024/03/18 00:49:15;;;;;;;2.83;1.40;;;;;;;;;;4994586;28;20222;-79
2024/03/18 00:51:44;;;;;;;3.40;1.63;;;;;;;;;;4995628;28;20280;-79
2024/03/18 00:54:11;;;;;;;2.97;1.17;;;;;;;;;;5007388;28;20233;-79
2024/03/18 00:56:37;;;;;;;4.60;1.60;;;;;;;;;;4987019;28;20337;-80
2024/03/18 00:59:08;;;;;;;4.47;1.50;;;;;;;;;;4976510;28;20221;-79
2024/03/18 01:01:41;;;;;;;3.40;1.50;;;;;;;;;;4991080;28;20221;-80
2024/03/18 01:04:10;;;;;;;3.83;1.33;;;;;;;;;;4966552;28;20582;-80
2024/03/18 01:06:36;;;;;;;4.20;1.47;;;;;;;;;;4986495;28;20240;-80
2024/03/18 01:09:02;;;;;;;5.17;1.40;;;;;;;;;;4994520;28;20221;-80
2024/03/18 01:11:28;;;;;;;4.30;1.50;;;;;;;;;;4992687;28;20229;-79
2024/03/18 01:13:53;;;;;;;3.47;1.50;;;;;;;;;;4978274;28;20736;-79
2024/03/18 01:16:21;;;;;;;2.63;1.07;;;;;;;;;;4976778;28;20267;-80
2024/03/18 01:18:47;;;;;;;3.07;1.40;;;;;;;;;;4980081;28;20217;-79
2024/03/18 01:21:15;;;;;;;4.40;1.60;;;;;;;;;;5011116;28;20248;-79
2024/03/18 01:23:41;;;;;;;4.20;2.00;;;;;;;;;;4998542;28;20232;-79
2024/03/18 01:26:07;;;;;;;2.90;1.70;;;;;;;;;;4993767;28;20317;-79
2024/03/18 01:28:34;;;;;;;3.93;1.40;;;;;;;;;;5011125;28;20256;-79
2024/03/18 01:31:05;;;;;;;3.00;1.60;;;;;;;;;;4977475;28;20236;-81
2024/03/18 01:33:33;;;;;;;5.67;1.73;;;;;;;;;;4994406;28;20225;-79
2024/03/18 01:35:58;;;;;;;7.27;1.83;;;;;;;;;;4997211;28;20213;-80
2024/03/18 01:38:26;;;;;;;4.10;1.63;;;;;;;;;;5008621;28;20229;-80
2024/03/18 01:40:53;;;;;;;3.57;1.40;;;;;;;;;;4959539;28;20667;-79
2024/03/18 01:43:19;;;;;;;2.27;1.27;;;;;;;;;;4977118;28;20687;-80
2024/03/18 01:45:44;;;;;;;3.13;1.33;;;;;;;;;;4994698;28;20225;-80
2024/03/18 01:48:11;;;;;;;3.93;1.70;;;;;;;;;;4959236;28;20262;-79
2024/03/18 01:50:37;;;;;;;4.13;1.67;;;;;;;;;;4962247;28;20232;-80
2024/03/18 01:53:05;;;;;;;4.20;1.83;;;;;;;;;;4962237;28;20312;-80
2024/03/18 01:55:32;;;;;;;4.93;1.80;;;;;;;;;;4992852;28;20217;-78
2024/03/18 01:58:00;;;;;;;3.80;1.67;;;;;;;;;;4982648;28;20277;-80
2024/03/18 02:00:38;;;;;;;4.30;1.70;;;;;;;;;;5006110;28;20247;-80
2024/03/18 02:03:09;;;;;;;4.50;1.60;;;;;;;;;;5002073;28;20229;-79
2024/03/18 02:05:38;;;;;;;3.53;1.70;;;;;;;;;;4962548;28;20238;-79
2024/03/18 02:08:04;;;;;;;3.47;1.60;;;;;;;;;;5002308;28;20225;-80
2024/03/18 02:10:29;;;;;;;3.27;1.73;;;;;;;;;;5015789;28;20678;-79
2024/03/18 02:13:01;;;;;;;4.03;1.60;;;;;;;;;;4988344;28;20288;-80
2024/03/18 02:15:32;;;;;;;3.30;1.70;;;;;;;;;;5001437;28;20695;-79
2024/03/18 02:17:58;;;;;;;4.37;1.80;;;;;;;;;;4978408;28;20265;-81
2024/03/18 02:20:24;;;;;;;2.97;1.50;;;;;;;;;;4992796;28;20280;-79
2024/03/18 02:22:54;;;;;;;2.53;1.77;;;;;;;;;;4977049;28;20316;-80
2024/03/18 02:25:20;;;;;;;3.10;1.60;;;;;;;;;;4993090;28;20229;-80
2024/03/18 02:27:46;;;;;;;3.10;1.70;;;;;;;;;;5006599;28;20213;-79
2024/03/18 02:30:12;;;;;;;4.00;1.90;;;;;;;;;;5003043;28;20225;-80
2024/03/18 02:32:41;;;;;;;3.00;2.10;;;;;;;;;;5004320;28;20225;-80
2024/03/18 02:35:08;;;;;;;3.70;2.00;;;;;;;;;;5007488;28;20221;-80
2024/03/18 02:37:33;;;;;;;4.23;2.00;;;;;;;;;;4982678;28;20225;-80
2024/03/18 02:40:00;;;;;;;3.43;1.77;;;;;;;;;;4977840;28;20224;-80
2024/03/18 02:42:25;;;;;;;4.90;2.07;;;;;;;;;;4973948;28;20225;-79
2024/03/18 02:44:51;;;;;;;2.87;1.50;;;;;;;;;;5002767;28;20268;-80
2024/03/18 02:47:17;;;;;;;3.50;1.60;;;;;;;;;;5006798;28;20233;-79
2024/03/18 02:49:45;;;;;;;3.13;1.63;;;;;;;;;;4970114;28;20214;-80
2024/03/18 02:52:10;;;;;;;3.07;1.67;;;;;;;;;;4979219;28;20977;-80
2024/03/18 02:54:38;;;;;;;2.57;1.70;;;;;;;;;;4969186;28;20231;-79
2024/03/18 02:57:04;;;;;;;4.33;2.03;;;;;;;;;;4990573;28;20240;-79
2024/03/18 02:59:29;;;;;;;2.70;1.70;;;;;;;;;;5002423;28;20979;-79
2024/03/18 03:01:55;;;;;;;2.93;1.80;;;;;;;;;;5005902;28;20221;-80
2024/03/18 03:04:20;;;;;;;2.67;1.57;;;;;;;;;;4972900;28;20236;-80
2024/03/18 03:06:50;;;;;;;5.67;2.00;;;;;;;;;;4975181;28;20584;-79
2024/03/18 03:09:16;;;;;;;4.43;2.00;;;;;;;;;;4995970;28;20225;-80
2024/03/18 03:11:42;;;;;;;2.17;1.90;;;;;;;;;;4988100;28;20217;-79
2024/03/18 03:14:09;;;;;;;2.67;1.90;;;;;;;;;;4974219;28;20225;-80
2024/03/18 03:16:34;;;;;;;4.70;2.17;;;;;;;;;;4983899;28;20229;-79
2024/03/18 03:19:02;;;;;;;2.90;1.90;;;;;;;;;;4978978;28;20209;-80
2024/03/18 03:21:30;;;;;;;3.47;1.90;;;;;;;;;;4991985;28;20225;-79
2024/03/18 03:24:00;;;;;;;4.67;2.10;;;;;;;;;;5011388;28;20589;-79
2024/03/18 03:26:29;;;;;;;4.73;2.03;;;;;;;;;;4970981;28;20233;-79
2024/03/18 03:28:55;;;;;;;2.10;1.90;;;;;;;;;;4988257;28;20229;-79
2024/03/18 03:31:20;;;;;;;3.33;2.40;;;;;;;;;;4972664;28;20221;-79
2024/03/18 03:33:46;;;;;;;2.17;1.77;;;;;;;;;;4975823;28;20602;-80
2024/03/18 03:36:12;;;;;;;4.63;2.20;;;;;;;;;;4985282;28;20228;-80
2024/03/18 03:38:37;;;;;;;2.80;1.90;;;;;;;;;;5007859;28;20231;-79
2024/03/18 03:41:03;;;;;;;2.77;2.20;;;;;;;;;;5001793;28;20252;-79
2024/03/18 03:43:28;;;;;;;2.30;2.00;;;;;;;;;;4987057;28;20245;-78
2024/03/18 03:45:56;;;;;;;2.97;1.90;;;;;;;;;;4975674;28;20225;-79
2024/03/18 03:48:24;;;;;;;3.33;2.00;;;;;;;;;;4985795;28;20233;-80
2024/03/18 03:50:53;;;;;;;2.50;1.97;;;;;;;;;;4976684;28;20264;-81
2024/03/18 03:53:27;;;;;;;4.53;2.20;;;;;;;;;;5005062;28;20328;-79
2024/03/18 03:55:56;;;;;;;4.23;2.10;;;;;;;;;;4974927;28;20489;-79
2024/03/18 04:02:10;;;;;;;4.47;2.10;;;;;;;;;;4997007;28;20733;-79
2024/03/18 04:04:35;;;;;;;3.73;2.20;;;;;;;;;;5005206;28;20360;-79
2024/03/18 04:07:03;;;;;;;2.87;2.23;;;;;;;;;;4986909;28;20880;-79
2024/03/18 04:09:31;;;;;;;2.50;2.03;;;;;;;;;;4981277;28;20284;-78
2024/03/18 04:11:57;;;;;;;4.20;2.10;;;;;;;;;;5004014;28;20274;-79
2024/03/18 04:14:27;;;;;;;4.67;2.30;;;;;;;;;;4977824;28;20426;-79
2024/03/18 04:16:55;;;;;;;3.10;2.00;;;;;;;;;;4976670;28;20221;-79
2024/03/18 04:19:24;;;;;;;4.33;2.40;;;;;;;;;;4995632;28;20244;-79
2024/03/18 04:21:51;;;;;;;3.47;2.10;;;;;;;;;;4995253;28;20227;-80
2024/03/18 04:24:22;;;;;;;2.27;1.97;;;;;;;;;;4982676;28;20304;-79
2024/03/18 04:26:49;;;;;;;2.60;1.90;;;;;;;;;;4997862;28;20220;-80
2024/03/18 04:29:15;;;;;;;4.17;2.10;;;;;;;;;;4975966;28;20236;-78
2024/03/18 04:31:40;;;;;;;2.93;2.30;;;;;;;;;;4990971;28;20222;-80
2024/03/18 04:34:06;;;;;;;3.70;2.20;;;;;;;;;;4987023;28;20784;-80
2024/03/18 04:36:34;;;;;;;3.10;2.13;;;;;;;;;;5007240;28;20225;-80
2024/03/18 04:38:59;;;;;;;2.50;2.03;;;;;;;;;;4993186;28;20217;-80
2024/03/18 04:41:27;;;;;;;3.13;2.87;;;;;;;;;;5008425;28;20217;-79
2024/03/18 04:43:55;;;;;;;3.67;2.17;;;;;;;;;;4978397;28;20256;-80
2024/03/18 04:46:23;;;;;;;2.83;1.93;;;;;;;;;;5009292;28;20774;-80
2024/03/18 04:48:49;;;;;;;3.07;2.20;;;;;;;;;;4993122;28;20225;-81
2024/03/18 04:51:15;;;;;;;3.03;1.90;;;;;;;;;;4980585;28;20221;-79
2024/03/18 04:53:43;;;;;;;2.27;2.03;;;;;;;;;;5005147;28;20373;-79
2024/03/18 04:56:08;;;;;;;2.20;1.93;;;;;;;;;;4977873;28;20229;-79
2024/03/18 04:58:36;;;;;;;2.57;1.90;;;;;;;;;;5008882;28;20218;-79
2024/03/18 05:01:04;;;;;;;4.23;2.10;;;;;;;;;;5009689;28;20231;-79
2024/03/18 05:03:32;;;;;;;3.07;1.90;;;;;;;;;;4986341;28;20730;-79
2024/03/18 05:06:00;;;;;;;3.43;2.20;;;;;;;;;;4994796;28;20352;-80
2024/03/18 05:08:25;;;;;;;2.70;2.17;;;;;;;;;;4989499;28;20233;-79
2024/03/18 05:10:51;;;;;;;2.27;1.80;;;;;;;;;;4994318;28;20217;-80
2024/03/18 05:13:16;;;;;;;4.10;2.00;;;;;;;;;;4991758;28;20583;-79
2024/03/18 05:15:42;;;;;;;3.07;1.77;;;;;;;;;;5005610;28;20286;-80
2024/03/18 05:18:07;;;;;;;2.30;2.10;;;;;;;;;;4992690;28;20248;-80
2024/03/18 05:20:35;;;;;;;3.07;1.90;;;;;;;;;;5004563;28;20234;-79
2024/03/18 05:23:03;;;;;;;3.10;2.10;;;;;;;;;;4988472;28;20300;-81
2024/03/18 05:25:29;;;;;;;2.77;2.23;;;;;;;;;;4995544;28;20279;-80
2024/03/18 05:27:54;;;;;;;3.07;2.10;;;;;;;;;;4993465;28;20458;-81
2024/03/18 05:30:20;;;;;;;2.93;2.03;;;;;;;;;;4990630;28;20221;-79
2024/03/18 05:32:46;;;;;;;2.30;1.87;;;;;;;;;;5008958;28;20287;-80
2024/03/18 05:35:12;;;;;;;3.90;2.23;;;;;;;;;;5008119;28;20213;-79
2024/03/18 05:37:37;;;;;;;2.50;2.07;;;;;;;;;;4987485;28;20283;-78
2024/03/18 05:40:04;;;;;;;2.20;1.87;;;;;;;;;;4991225;28;20308;-79
2024/03/18 05:42:31;;;;;;;3.27;2.30;;;;;;;;;;5024748;28;20696;-78
2024/03/18 05:45:00;;;;;;;3.47;2.00;;;;;;;;;;4996989;28;20252;-80
2024/03/18 05:47:25;;;;;;;2.83;2.20;;;;;;;;;;4986506;28;20246;-79
2024/03/18 05:49:52;;;;;;;3.60;2.23;;;;;;;;;;4993218;28;20218;-79
2024/03/18 05:52:17;;;;;;;2.40;1.80;;;;;;;;;;4988270;28;20232;-79
2024/03/18 05:54:46;;;;;;;4.13;2.20;;;;;;;;;;4993271;28;20702;-79
2024/03/18 05:57:12;;;;;;;3.20;2.50;;;;;;;;;;4992809;28;20217;-79
2024/03/18 05:59:37;;;;;;;3.27;2.00;;;;;;;;;;4978402;28;20226;-79
2024/03/18 06:02:03;;;;;;;2.87;2.00;;;;;;;;;;4994880;28;20217;-80
2024/03/18 06:04:31;;;;;;;3.77;2.30;;;;;;;;;;4998943;28;20686;-79
2024/03/18 06:06:59;;;;;;;3.23;2.23;;;;;;;;;;4974718;28;20225;-79
2024/03/18 06:09:26;;;;;;;3.57;2.20;;;;;;;;;;4990173;28;20570;-77
2024/03/18 06:11:51;;;;;;;2.60;2.13;;;;;;;;;;4996210;28;20316;-79
2024/03/18 06:14:17;;;;;;;3.50;2.40;;;;;;;;;;4990490;28;20268;-79
2024/03/18 06:16:42;;;;;;;2.90;2.27;;;;;;;;;;4995496;28;20221;-80
2024/03/18 06:19:09;;;;;;;4.03;2.30;;;;;;;;;;5001728;28;20218;-79
2024/03/18 06:21:45;;;;;;;4.37;2.40;;;;;;;;;;4975421;28;20254;-80
2024/03/18 06:24:22;;;;;;;2.57;2.20;;;;;;;;;;4987855;28;20243;-79
2024/03/18 06:26:48;;;;;;;3.03;2.43;;;;;;;;;;4997973;28;21010;-79
2024/03/18 06:29:14;;;;;;;5.77;2.40;;;;;;;;;;4990708;28;20863;-78
2024/03/18 06:31:39;;;;;;;2.63;2.13;;;;;;;;;;4975335;28;20226;-79
2024/03/18 06:34:05;;;;;;;2.43;2.10;;;;;;;;;;4975662;28;20303;-80
2024/03/18 06:36:32;;;;;;;4.40;2.40;;;;;;;;;;4989871;28;20229;-80
2024/03/18 06:39:00;;;;;;;2.23;2.00;;;;;;;;;;4990677;28;20249;-79
2024/03/18 06:41:25;;;;;;;3.93;2.40;;;;;;;;;;4972439;28;20239;-79
2024/03/18 06:43:51;;;;;;;2.50;2.30;;;;;;;;;;4992320;28;20272;-80
2024/03/18 06:46:19;;;;;;;2.57;2.33;;;;;;;;;;4999138;28;20222;-79
2024/03/18 06:48:44;;;;;;;4.07;2.50;;;;;;;;;;4991806;28;20225;-79
2024/03/18 06:51:16;;;;;;;4.03;2.07;;;;;;;;;;5001334;28;20240;-78
2024/03/18 06:53:42;;;;;;;5.00;2.40;;;;;;;;;;5018430;28;20229;-79
2024/03/18 06:56:11;;;;;;;3.90;2.20;;;;;;;;;;5004358;28;20253;-77
2024/03/18 06:58:39;;;;;;;3.77;2.27;;;;;;;;;;5015976;28;20240;-78
2024/03/18 07:01:05;;;;;;;2.40;2.20;;;;;;;;;;5003932;28;20372;-80
2024/03/18 07:03:31;;;;;;;5.10;2.60;;;;;;;;;;4998227;28;20268;-78
2024/03/18 07:05:56;;;;;;;2.57;2.17;;;;;;;;;;5012733;28;20229;-79
2024/03/18 07:08:22;;;;;;;4.47;2.70;;;;;;;;;;5002575;28;20217;-79
2024/03/18 07:10:50;;;;;;;4.70;2.30;;;;;;;;;;4987169;28;20229;-80
2024/03/18 07:13:16;;;;;;;3.47;2.60;;;;;;;;;;4988960;28;20234;-79
2024/03/18 07:15:41;;;;;;;2.50;2.20;;;;;;;;;;5004658;28;20223;-79
2024/03/18 07:18:09;;;;;;;2.90;2.13;;;;;;;;;;5001020;28;20885;-80
2024/03/18 07:20:39;;;;;;;3.97;2.50;;;;;;;;;;4982579;28;20222;-79
2024/03/18 07:23:05;;;;;;;4.13;2.10;;;;;;;;;;4984878;28;20707;-78
2024/03/18 07:25:31;;;;;;;5.37;2.33;;;;;;;;;;5004644;28;20344;-79
2024/03/18 07:27:57;;;;;;;4.50;2.80;;;;;;;;;;4974337;28;20720;-79
2024/03/18 07:30:22;;;;;;;3.57;2.40;;;;;;;;;;5000920;28;20228;-81
2024/03/18 07:32:48;;;;;;;3.40;2.23;;;;;;;;;;4985440;28;20249;-79
2024/03/18 07:35:14;;;;;;;3.60;2.40;;;;;;;;;;4986885;28;20295;-79
2024/03/18 07:37:43;;;;;;;4.60;2.93;;;;;;;;;;5003324;28;20256;-79
2024/03/18 07:40:11;;;;;;;3.57;2.63;;;;;;;;;;5003359;28;20699;-79
2024/03/18 07:42:42;;;;;;;6.70;2.60;;;;;;;;;;4972718;28;20307;-79
2024/03/18 07:45:08;;;;;;;5.00;2.70;;;;;;;;;;4969841;28;20214;-78
2024/03/18 07:47:35;;;;;;;3.57;2.57;;;;;;;;;;4996373;28;20241;-80
2024/03/18 07:50:04;;;;;;;4.47;2.30;;;;;;;;;;4972414;28;20228;-81
2024/03/18 07:52:31;;;;;;;4.73;2.30;;;;;;;;;;4980349;28;20594;-80
2024/03/18 07:55:00;;;;;;;4.20;2.43;;;;;;;;;;4959652;28;20225;-79
2024/03/18 07:57:28;;;;;;;3.43;2.33;;;;;;;;;;5000044;28;20224;-79
2024/03/18 07:59:54;;;;;;;5.53;2.50;;;;;;;;;;5003339;28;20708;-79
2024/03/18 08:02:20;;;;;;;4.83;2.47;;;;;;;;;;5000378;28;20322;-79
2024/03/18 08:04:50;;;;;;;2.60;2.40;;;;;;;;;;4980205;28;20229;-80
2024/03/18 08:07:16;;;;;;;6.13;2.77;;;;;;;;;;4988987;28;20237;-78
2024/03/18 08:09:41;;;;;;;4.90;2.50;;;;;;;;;;4999875;28;20229;-78
2024/03/18 08:12:07;;;;;;;3.73;2.40;;;;;;;;;;4977454;28;20229;-80
2024/03/18 08:14:36;;;;;;;5.00;2.70;;;;;;;;;;4986410;28;20224;-80
2024/03/18 08:17:04;;;;;;;3.23;2.40;;;;;;;;;;4978179;28;20280;-79
2024/03/18 08:19:32;;;;;;;3.23;2.63;;;;;;;;;;4997013;28;20220;-80
2024/03/18 08:22:00;;;;;;;4.30;2.53;;;;;;;;;;4984731;28;20571;-80
2024/03/18 08:24:29;;;;;;;4.57;2.63;;;;;;;;;;5014069;28;20221;-78
2024/03/18 08:26:54;;;;;;;4.93;2.50;;;;;;;;;;4981439;28;20362;-78
2024/03/18 08:29:21;;;;;;;4.23;2.40;;;;;;;;;;5000512;28;20971;-78
2024/03/18 08:31:48;;;;;;;3.60;2.63;;;;;;;;;;5006596;28;20222;-79
2024/03/18 08:34:14;;;;;;;4.57;2.60;;;;;;;;;;4990891;28;20353;-79
2024/03/18 08:36:39;;;;;;;2.40;2.20;;;;;;;;;;5005050;28;20732;-80
2024/03/18 08:39:05;;;;;;;4.43;2.50;;;;;;;;;;4960415;28;20232;-78
2024/03/18 08:41:33;;;;;;;3.10;2.20;;;;;;;;;;5008495;28;20742;-80
2024/03/18 08:43:58;;;;;;;3.57;2.40;;;;;;;;;;4992030;28;20308;-80
2024/03/18 08:46:24;;;;;;;3.50;2.30;;;;;;;;;;4976526;28;20233;-81
2024/03/18 08:48:52;;;;;;;4.80;2.50;;;;;;;;;;5003838;28;20619;-79
2024/03/18 08:51:17;;;;;;;4.20;2.57;;;;;;;;;;4978800;28;20227;-80
2024/03/18 08:53:43;;;;;;;5.13;2.17;;;;;;;;;;5000518;28;20300;-81
2024/03/18 08:56:09;;;;;;;3.70;2.23;;;;;;;;;;4962460;28;20690;-79
2024/03/18 08:58:35;;;;;;;3.97;1.93;;;;;;;;;;4988332;28;20580;-80
2024/03/18 09:01:01;;;;;;;5.53;2.50;;;;;;;;;;4994584;28;20223;-79
2024/03/18 09:03:29;;;;;;;3.63;2.17;;;;;;;;;;4975937;28;20255;-79
2024/03/18 09:05:55;;;;;;;4.30;2.13;;;;;;;;;;4991478;28;20229;-77
2024/03/18 09:08:22;;;;;;;3.57;2.20;;;;;;;;;;4992438;28;20251;-79
2024/03/18 09:10:48;;;;;;;4.17;2.30;;;;;;;;;;4989935;28;20728;-81
2024/03/18 09:13:14;;;;;;;4.03;2.27;;;;;;;;;;4975167;28;20225;-79
2024/03/18 09:15:42;;;;;;;6.17;2.33;;;;;;;;;;4990642;28;20214;-80
2024/03/18 09:18:12;;;;;;;3.37;2.27;;;;;;;;;;4991959;28;20220;-81
2024/03/18 09:20:40;;;;;;;5.20;2.30;;;;;;;;;;4972871;28;20276;-80
2024/03/18 09:23:09;;;;;;;3.50;2.33;;;;;;;;;;4985879;28;20229;-81
2024/03/18 09:25:38;;;;;;;5.40;2.40;;;;;;;;;;4990435;28;20646;-80
2024/03/18 09:28:04;;;;;;;4.60;2.20;;;;;;;;;;4992875;28;20244;-80
2024/03/18 09:30:33;;;;;;;3.73;2.17;;;;;;;;;;4971838;28;20222;-79
2024/03/18 09:32:59;;;;;;;4.53;2.40;;;;;;;;;;4992565;28;20316;-80
2024/03/18 09:35:26;;;;;;;4.33;2.30;;;;;;;;;;5003868;28;20961;-79
2024/03/18 09:37:52;;;;;;;3.87;2.20;;;;;;;;;;4976937;28;20236;-80
2024/03/18 09:40:17;;;;;;;5.67;2.20;;;;;;;;;;4992536;28;20221;-80
2024/03/18 09:42:43;;;;;;;4.93;2.27;;;;;;;;;;5006042;28;20222;-79
2024/03/18 09:45:15;;;;;;;3.73;2.17;;;;;;;;;;4972967;28;20617;-80
2024/03/18 09:47:43;;;;;;;3.87;2.07;;;;;;;;;;5007269;28;20232;-79
2024/03/18 09:50:12;;;;;;;4.53;2.00;;;;;;;;;;4976678;28;20221;-80
2024/03/18 09:52:37;;;;;;;5.00;2.00;;;;;;;;;;5007737;28;20217;-79
2024/03/18 09:55:24;;;;;;;6.20;2.20;;;;;;;;;;5011358;28;20228;-81
2024/03/18 09:57:50;;;;;;;5.80;2.07;;;;;;;;;;4985810;28;20636;-81
2024/03/18 10:00:19;;;;;;;6.63;2.20;;;;;;;;;;4988639;28;20249;-78
2024/03/18 10:02:46;;;;;;;5.53;2.30;;;;;;;;;;4988981;28;20217;-81
2024/03/18 10:05:14;;;;;;;5.53;2.03;;;;;;;;;;4974336;28;20217;-80
2024/03/18 10:07:40;;;;;;;4.47;2.00;;;;;;;;;;5001163;28;20238;-81
2024/03/18 10:10:20;;;;;;;4.30;1.97;;;;;;;;;;4974603;28;20222;-79
2024/03/18 10:12:48;;;;;;;5.93;2.13;;;;;;;;;;4992488;28;20221;-80
2024/03/18 10:15:14;;;;;;;4.83;2.30;;;;;;;;;;4988155;28;20225;-79
2024/03/18 10:17:43;;;;;;;3.10;2.10;;;;;;;;;;4987784;28;20280;-80
2024/03/18 10:20:23;;;;;;;5.07;2.13;;;;;;;;;;4956953;28;20764;-81
2024/03/18 10:22:54;;;;;;;4.87;2.60;;;;;;;;;;4992401;28;20260;-80
2024/03/18 10:25:24;;;;;;;7.37;2.30;;;;;;;;;;4976714;28;20737;-81
2024/03/18 10:27:56;;;;;;;3.77;2.27;;;;;;;;;;4986241;28;20284;-79
2024/03/18 10:30:21;;;;;;;3.40;1.90;;;;;;;;;;5002791;28;20283;-80
2024/03/18 10:32:47;;;;;;;5.47;2.20;;;;;;;;;;4983298;28;20222;-80
2024/03/18 10:35:21;;;;;;;4.93;2.20;;;;;;;;;;5000779;28;20241;-79
2024/03/18 10:37:58;;;;;;;5.40;2.20;;;;;;;;;;5004727;28;20220;-78
2024/03/18 10:40:38;;;;;;;4.87;2.20;;;;;;;;;;4991265;28;20232;-80
2024/03/18 10:43:13;;;;;;;6.30;2.60;;;;;;;;;;4998527;28;20231;-79
2024/03/18 10:45:46;;;;;;;5.90;2.30;;;;;;;;;;4983923;28;20625;-80
2024/03/18 10:48:15;;;;;;;7.40;2.60;;;;;;;;;;4990964;28;20222;-79
2024/03/18 10:50:44;;;;;;;4.80;2.50;;;;;;;;;;4977449;28;20216;-81
2024/03/18 10:53:24;;;;;;;4.43;2.23;;;;;;;;;;4989047;28;20232;-79
2024/03/18 10:55:52;;;;;;;3.40;2.30;;;;;;;;;;4969042;28;20229;-80
2024/03/18 10:58:27;;;;;;;4.20;2.40;;;;;;;;;;5013498;28;20248;-80
2024/03/18 11:00:53;;;;;;;3.23;2.17;;;;;;;;;;5001460;28;20233;-79
2024/03/18 11:03:22;;;;;;;3.37;2.40;;;;;;;;;;5008212;28;20232;-82
2024/03/18 11:05:50;;;;;;;6.37;2.60;;;;;;;;;;5023823;28;20221;-80
2024/03/18 11:08:19;;;;;;;4.37;2.43;;;;;;;;;;5021882;28;20247;-81
2024/03/18 11:10:46;;;;;;;4.20;2.63;;;;;;;;;;5012631;28;20214;-80
2024/03/18 11:13:20;;;;;;;4.70;2.40;;;;;;;;;;4998285;28;20481;-80
2024/03/18 11:15:48;;;;;;;4.23;2.40;;;;;;;;;;4996454;28;20217;-81
2024/03/18 11:18:27;;;;;;;4.83;2.67;;;;;;;;;;4996654;28;20220;-81
2024/03/18 11:20:56;;;;;;;3.80;2.50;;;;;;;;;;4985670;28;20232;-80
2024/03/18 11:23:27;;;;;;;4.33;2.40;;;;;;;;;;4993940;28;20314;-81
2024/03/18 11:25:58;;;;;;;3.17;2.47;;;;;;;;;;4995887;28;20301;-80
2024/03/18 11:28:38;;;;;;;5.67;2.73;;;;;;;;;;5002076;28;20263;-80
2024/03/18 11:31:05;;;;;;;5.30;2.53;;;;;;;;;;4991044;28;20225;-79
2024/03/18 11:33:33;;;;;;;4.73;2.77;;;;;;;;;;4984923;28;20280;-78
2024/03/18 11:35:58;;;;;;;5.80;2.53;;;;;;;;;;4966232;28;20233;-81
2024/03/18 11:38:26;;;;;;;6.00;2.57;;;;;;;;;;4956224;28;20221;-79
2024/03/18 11:40:52;;;;;;;3.70;2.60;;;;;;;;;;4998091;28;20249;-80
2024/03/18 11:43:18;;;;;;;4.17;2.77;;;;;;;;;;5004924;28;20229;-79
2024/03/18 11:45:47;;;;;;;5.40;2.80;;;;;;;;;;4973542;28;20283;-81
2024/03/18 11:48:16;;;;;;;6.43;2.87;;;;;;;;;;5004525;28;20216;-80
2024/03/18 11:50:41;;;;;;;7.23;2.80;;;;;;;;;;4984794;28;20221;-80
2024/03/18 11:53:08;;;;;;;3.87;2.30;;;;;;;;;;4999129;28;20240;-80
2024/03/18 11:55:36;;;;;;;3.87;2.30;;;;;;;;;;5001214;28;20245;-80
2024/03/18 11:58:03;;;;;;;4.83;2.50;;;;;;;;;;4951604;28;20610;-79
2024/03/18 12:00:32;;;;;;;6.37;2.80;;;;;;;;;;4989709;28;20600;-80
2024/03/18 12:03:02;;;;;;;4.50;2.60;;;;;;;;;;4982572;28;20391;-79
2024/03/18 12:05:28;;;;;;;5.27;2.73;;;;;;;;;;4992670;28;20218;-78
2024/03/18 12:07:55;;;;;;;4.10;2.60;;;;;;;;;;4958940;28;20728;-81
2024/03/18 12:10:21;;;;;;;5.23;2.97;;;;;;;;;;4988970;28;20738;-79
2024/03/18 12:12:48;;;;;;;5.37;2.77;;;;;;;;;;4967084;28;20229;-80
2024/03/18 12:15:15;;;;;;;5.37;2.83;;;;;;;;;;4970555;28;20638;-78
2024/03/18 12:17:46;;;;;;;4.73;2.97;;;;;;;;;;4968878;28;20225;-79
2024/03/18 12:20:21;;;;;;;3.77;2.67;;;;;;;;;;5003456;28;20233;-80
2024/03/18 12:22:54;;;;;;;3.17;2.60;;;;;;;;;;4979180;28;20666;-80
2024/03/18 12:31:16;;;;;;;4.47;3.10;;;;;;;;;;4969990;28;20296;-79
2024/03/18 12:33:44;;;;;;;5.20;2.50;;;;;;;;;;4980453;28;20663;-79
2024/03/18 12:36:14;;;;;;;6.37;3.10;;;;;;;;;;4984722;28;20226;-81
2024/03/18 12:38:41;;;;;;;5.50;2.70;;;;;;;;;;4996511;28;20956;-80
2024/03/18 12:41:06;;;;;;;4.10;2.80;;;;;;;;;;5000111;28;20284;-81
2024/03/18 12:43:34;;;;;;;5.17;3.00;;;;;;;;;;4996897;28;20237;-82
2024/03/18 12:46:00;;;;;;;4.93;3.27;;;;;;;;;;4987954;28;20238;-81
2024/03/18 12:48:28;;;;;;;5.63;3.23;;;;;;;;;;4997246;28;20229;-81
2024/03/18 12:50:56;;;;;;;5.23;3.00;;;;;;;;;;4989002;28;20722;-80
2024/03/18 12:53:25;;;;;;;5.33;3.17;;;;;;;;;;4958578;28;20225;-80
2024/03/18 12:55:50;;;;;;;4.57;2.80;;;;;;;;;;4997448;28;20914;-81
2024/03/18 12:58:18;;;;;;;5.80;3.10;;;;;;;;;;4971044;28;20218;-80
2024/03/18 13:00:44;;;;;;;5.20;3.03;;;;;;;;;;4986382;28;21085;-80
2024/03/18 13:03:13;;;;;;;4.47;2.97;;;;;;;;;;5004050;28;20229;-81
2024/03/18 13:05:39;;;;;;;5.50;2.87;;;;;;;;;;4987636;28;20225;-83
2024/03/18 13:08:04;;;;;;;4.17;3.10;;;;;;;;;;4993191;28;20244;-79
2024/03/18 13:10:30;;;;;;;4.53;3.03;;;;;;;;;;4983731;28;20836;-79
2024/03/18 13:12:56;;;;;;;4.47;2.67;;;;;;;;;;4988271;28;20233;-80
2024/03/18 13:15:22;;;;;;;3.90;2.73;;;;;;;;;;5005317;28;20214;-79
2024/03/18 13:17:48;;;;;;;4.80;3.10;;;;;;;;;;4995179;28;20225;-81
2024/03/18 13:20:17;;;;;;;4.47;2.90;;;;;;;;;;4983130;28;20225;-79
2024/03/18 13:22:46;;;;;;;3.80;3.00;;;;;;;;;;4973245;28;20225;-80
2024/03/18 13:25:12;;;;;;;3.90;2.90;;;;;;;;;;4987877;28;20236;-79
2024/03/18 13:27:37;;;;;;;3.92;2.70;;;;;;;;;;4971106;28;20316;-80
2024/03/18 13:30:06;;;;;;;4.35;3.03;;;;;;;;;;4988663;28;20788;-79
2024/03/18 13:32:37;;;;;;;4.63;3.13;;;;;;;;;;4983750;28;20226;-80
2024/03/18 13:35:03;;;;;;;6.55;3.50;;;;;;;;;;4988197;28;20229;-80
2024/03/18 13:37:35;;;;;;;4.05;2.80;;;;;;;;;;4983640;28;20333;-79
2024/03/18 13:40:00;;;;;;;4.50;3.10;;;;;;;;;;4993695;28;20237;-80
2024/03/18 13:42:26;;;;;;;5.03;3.38;;;;;;;;;;4990089;28;20611;-80
2024/03/18 13:44:51;;;;;;;3.88;2.90;;;;;;;;;;4989826;28;20232;-79
2024/03/18 13:47:17;;;;;;;3.93;2.80;;;;;;;;;;4970360;28;20245;-79
2024/03/18 13:49:42;;;;;;;3.60;2.70;;;;;;;;;;5004422;28;20242;-79
2024/03/18 13:52:13;;;;;;;4.70;3.27;;;;;;;;;;4990118;28;20300;-78
2024/03/18 13:54:44;;;;;;;4.03;3.30;;;;;;;;;;4992847;28;20221;-80
2024/03/18 13:57:13;;;;;;;4.95;3.22;;;;;;;;;;5003171;28;20229;-79
2024/03/18 13:59:43;;;;;;;4.18;3.15;;;;;;;;;;4997067;28;20222;-81
2024/03/18 14:02:14;;;;;;;4.00;3.10;;;;;;;;;;4985385;28;20228;-79
2024/03/18 14:04:43;;;;;;;3.55;3.13;;;;;;;;;;5011807;28;20292;-80
2024/03/18 14:07:09;;;;;;;3.97;2.90;;;;;;;;;;4966673;28;20229;-80
2024/03/18 14:09:37;;;;;;;4.40;3.40;;;;;;;;;;4978063;28;20225;-80
2024/03/18 14:12:10;;;;;;;5.40;3.58;;;;;;;;;;4984222;28;20334;-81
2024/03/18 14:14:37;;;;;;;4.97;3.30;;;;;;;;;;4973748;28;20682;-79
2024/03/18 14:17:04;;;;;;;3.60;3.20;;;;;;;;;;4988407;28;20245;-78
2024/03/18 14:19:36;;;;;;;6.50;3.60;;;;;;;;;;4991203;28;20232;-80
2024/03/18 14:22:04;;;;;;;4.82;3.17;;;;;;;;;;4988100;28;20300;-80
2024/03/18 14:24:32;;;;;;;4.20;3.20;;;;;;;;;;4983733;28;20229;-81
2024/03/18 14:27:00;;;;;;;4.95;3.58;;;;;;;;;;4975852;28;20297;-80
2024/03/18 14:29:27;;;;;;;5.15;3.45;;;;;;;;;;4984063;28;20215;-80
2024/03/18 14:31:55;;;;;;;3.80;3.00;;;;;;;;;;4971636;28;20226;-80
2024/03/18 14:34:21;;;;;;;6.20;3.13;;;;;;;;;;4973234;28;20245;-79
2024/03/18 14:36:47;;;;;;;4.10;3.10;;;;;;;;;;4991362;28;20384;-78
2024/03/18 14:39:13;;;;;;;5.25;3.40;;;;;;;;;;4981864;28;20237;-80
2024/03/18 14:41:44;;;;;;;4.45;3.30;;;;;;;;;;4969229;28;20218;-80
2024/03/18 14:44:09;;;;;;;5.25;3.33;;;;;;;;;;4988144;28;20604;-80
2024/03/18 14:46:35;;;;;;;4.95;3.25;;;;;;;;;;4978773;28;20230;-81
2024/03/18 14:49:02;;;;;;;3.97;3.03;;;;;;;;;;4987068;28;20225;-79
2024/03/18 14:51:32;;;;;;;5.45;3.50;;;;;;;;;;5000753;28;20852;-79
2024/03/18 14:53:57;;;;;;;4.38;3.25;;;;;;;;;;4974704;28;20225;-87
2024/03/18 14:56:26;;;;;;;5.10;3.50;;;;;;;;;;5006900;28;20686;-86